createdAt,value
2023-05-15T00:00:26.041Z,100.00
2023-05-15T00:02:52.951Z,100.00
2023-05-15T00:05:21.295Z,100.00
2023-05-15T00:07:48.017Z,100.00
2023-05-15T00:10:14.780Z,100.00
2023-05-15T00:12:41.548Z,100.00
2023-05-15T00:15:08.777Z,100.00
2023-05-15T00:17:35.465Z,100.00
2023-05-15T00:20:02.373Z,100.00
2023-05-15T00:22:29.141Z,100.00
2023-05-15T00:24:55.856Z,100.00
2023-05-15T00:27:22.613Z,100.00
2023-05-15T00:29:49.260Z,100.00
2023-05-15T00:32:15.959Z,100.00
2023-05-15T00:34:42.708Z,100.00
2023-05-15T00:37:09.451Z,100.00
2023-05-15T00:39:36.539Z,100.00
2023-05-15T00:42:04.820Z,100.00
2023-05-15T00:44:32.226Z,100.00
2023-05-15T00:47:01.113Z,100.00
2023-05-15T00:49:29.649Z,100.00
2023-05-15T00:52:02.095Z,100.00
2023-05-15T00:54:28.797Z,100.00
2023-05-15T00:56:59.760Z,100.00
2023-05-15T00:59:28.471Z,100.00
2023-05-15T01:01:55.417Z,100.00
2023-05-15T01:04:22.861Z,100.00
2023-05-15T01:06:50.050Z,100.00
2023-05-15T01:09:19.152Z,100.00
2023-05-15T01:11:47.485Z,100.00
2023-05-15T01:14:14.192Z,100.00
2023-05-15T01:16:41.594Z,100.00
2023-05-15T01:19:08.383Z,100.00
2023-05-15T01:21:35.098Z,100.00
2023-05-15T01:24:20.183Z,100.00
2023-05-15T01:27:32.558Z,100.00
2023-05-15T01:30:07.969Z,100.00
2023-05-15T01:32:58.544Z,100.00
2023-05-15T01:35:33.772Z,100.00
2023-05-15T01:38:15.617Z,100.00
2023-05-15T01:40:45.919Z,100.00
2023-05-15T01:43:18.450Z,100.00
2023-05-15T01:45:45.180Z,100.00
2023-05-15T01:48:13.921Z,100.00
2023-05-15T01:50:42.877Z,100.00
2023-05-15T01:53:11.171Z,100.00
2023-05-15T01:55:39.034Z,100.00
2023-05-15T01:58:06.047Z,100.00
2023-05-15T02:00:33.261Z,100.00
2023-05-15T02:03:01.063Z,100.00
2023-05-15T02:05:29.362Z,100.00
2023-05-15T02:07:56.811Z,100.00
2023-05-15T02:10:24.112Z,100.00
2023-05-15T02:12:51.369Z,100.00
2023-05-15T02:15:19.211Z,100.00
2023-05-15T02:17:46.003Z,100.00
2023-05-15T02:20:12.912Z,100.00
2023-05-15T02:22:39.665Z,100.00
2023-05-15T02:25:06.534Z,100.00
2023-05-15T02:27:51.681Z,100.00
2023-05-15T02:30:32.789Z,100.00
2023-05-15T02:33:14.756Z,100.00
2023-05-15T02:35:47.447Z,100.00
2023-05-15T02:38:20.635Z,100.00
2023-05-15T02:40:48.768Z,100.00
2023-05-15T02:43:19.322Z,100.00
2023-05-15T02:45:47.971Z,100.00
2023-05-15T02:48:17.165Z,100.00
2023-05-15T02:50:44.206Z,100.00
2023-05-15T02:53:10.939Z,100.00
2023-05-15T02:55:38.124Z,100.00
2023-05-15T02:58:05.126Z,100.00
2023-05-15T03:00:31.935Z,100.00
2023-05-15T03:02:58.787Z,100.00
2023-05-15T03:05:26.233Z,100.00
2023-05-15T03:07:53.217Z,100.00
2023-05-15T03:10:23.676Z,100.00
2023-05-15T03:12:50.453Z,100.00
2023-05-15T03:15:17.264Z,100.00
2023-05-15T03:17:44.796Z,100.00
2023-05-15T03:20:11.556Z,100.00
2023-05-15T03:22:38.330Z,100.00
2023-05-15T03:25:05.354Z,100.00
2023-05-15T03:27:31.989Z,100.00
2023-05-15T03:29:58.666Z,100.00
2023-05-15T03:32:25.442Z,100.00
2023-05-15T03:34:52.055Z,100.00
2023-05-15T03:37:18.825Z,100.00
2023-05-15T03:39:45.674Z,100.00
2023-05-15T03:42:12.376Z,100.00
2023-05-15T03:44:39.084Z,100.00
2023-05-15T03:47:06.282Z,100.00
2023-05-15T03:49:32.994Z,100.00
2023-05-15T03:51:59.726Z,100.00
2023-05-15T03:54:26.491Z,100.00
2023-05-15T03:56:53.320Z,100.00
2023-05-15T03:59:19.977Z,100.00
2023-05-15T04:02:03.031Z,100.00
2023-05-15T04:04:30.655Z,100.00
2023-05-15T04:06:57.459Z,100.00
2023-05-15T04:09:24.123Z,100.00
2023-05-15T04:11:50.794Z,100.00
2023-05-15T04:14:17.452Z,100.00
2023-05-15T04:16:44.298Z,100.00
2023-05-15T04:19:11.220Z,100.00
2023-05-15T04:21:38.026Z,100.00
2023-05-15T04:24:04.932Z,100.00
2023-05-15T04:26:34.593Z,100.00
2023-05-15T04:29:04.553Z,100.00
2023-05-15T04:31:34.885Z,100.00
2023-05-15T04:34:01.662Z,100.00
2023-05-15T04:36:28.312Z,100.00
2023-05-15T04:38:54.918Z,100.00
2023-05-15T04:41:22.219Z,100.00
2023-05-15T04:43:48.883Z,100.00
2023-05-15T04:46:16.224Z,100.00
2023-05-15T04:48:42.856Z,100.00
2023-05-15T04:51:09.559Z,100.00
2023-05-15T04:53:36.445Z,100.00
2023-05-15T04:56:03.213Z,100.00
2023-05-15T04:58:29.872Z,100.00
2023-05-15T05:00:56.616Z,100.00
2023-05-15T05:03:23.305Z,100.00
2023-05-15T05:05:50.037Z,100.00
2023-05-15T05:08:16.729Z,100.00
2023-05-15T05:10:43.390Z,100.00
2023-05-15T05:13:10.164Z,100.00
2023-05-15T05:15:37.659Z,100.00
2023-05-15T05:18:04.860Z,100.00
2023-05-15T05:20:31.606Z,100.00
2023-05-15T05:22:58.291Z,100.00
2023-05-15T05:25:25.197Z,100.00
2023-05-15T05:27:52.414Z,100.00
2023-05-15T05:30:19.145Z,100.00
2023-05-15T05:32:45.924Z,100.00
2023-05-15T05:35:12.648Z,100.00
2023-05-15T05:37:41.294Z,100.00
2023-05-15T05:40:09.033Z,100.00
2023-05-15T05:42:35.768Z,100.00
2023-05-15T05:45:07.731Z,100.00
2023-05-15T05:47:34.394Z,100.00
2023-05-15T05:50:01.145Z,100.00
2023-05-15T05:52:29.084Z,100.00
2023-05-15T05:54:55.737Z,100.00
2023-05-15T05:57:22.533Z,100.00
2023-05-15T05:59:49.843Z,100.00
2023-05-15T06:02:16.577Z,100.00
2023-05-15T06:04:43.243Z,100.00
2023-05-15T06:07:10.002Z,100.00
2023-05-15T06:09:36.645Z,100.00
2023-05-15T06:12:04.904Z,100.00
2023-05-15T06:14:31.667Z,100.00
2023-05-15T06:16:58.323Z,100.00
2023-05-15T06:19:25.017Z,100.00
2023-05-15T06:21:51.729Z,100.00
2023-05-15T06:24:18.612Z,100.00
2023-05-15T06:26:45.390Z,100.00
2023-05-15T06:29:12.067Z,100.00
2023-05-15T06:31:38.717Z,100.00
2023-05-15T06:34:05.396Z,100.00
2023-05-15T06:36:32.103Z,100.00
2023-05-15T06:38:58.739Z,100.00
2023-05-15T06:41:25.626Z,100.00
2023-05-15T06:43:55.562Z,100.00
2023-05-15T06:46:22.343Z,100.00
2023-05-15T06:48:49.055Z,100.00
2023-05-15T06:51:15.901Z,100.00
2023-05-15T06:53:42.982Z,100.00
2023-05-15T06:56:09.940Z,100.00
2023-05-15T06:58:36.673Z,100.00
2023-05-15T07:01:03.945Z,100.00
2023-05-15T07:03:30.813Z,100.00
2023-05-15T07:05:57.480Z,100.00
2023-05-15T07:08:24.321Z,100.00
2023-05-15T07:10:51.498Z,100.00
2023-05-15T07:13:20.979Z,100.00
2023-05-15T07:15:47.756Z,100.00
2023-05-15T07:18:14.490Z,100.00
2023-05-15T07:20:41.187Z,100.00
2023-05-15T07:23:07.974Z,100.00
2023-05-15T07:25:34.747Z,100.00
2023-05-15T07:28:01.434Z,100.00
2023-05-15T07:30:28.355Z,100.00
2023-05-15T07:32:55.441Z,100.00
2023-05-15T07:35:22.347Z,100.00
2023-05-15T07:37:49.114Z,100.00
2023-05-15T07:40:15.868Z,100.00
2023-05-15T07:42:44.155Z,100.00
2023-05-15T07:45:13.013Z,100.00
2023-05-15T07:47:45.053Z,100.00
2023-05-15T07:50:11.741Z,100.00
2023-05-15T07:52:38.435Z,100.00
2023-05-15T07:55:07.099Z,100.00
2023-05-15T07:57:33.823Z,100.00
2023-05-15T08:00:02.442Z,100.00
2023-05-15T08:02:29.135Z,100.00
2023-05-15T08:04:56.039Z,100.00
2023-05-15T08:07:22.758Z,100.00
2023-05-15T08:09:49.664Z,100.00
2023-05-15T08:12:22.720Z,100.00
2023-05-15T08:14:51.126Z,100.00
2023-05-15T08:17:18.246Z,100.00
2023-05-15T08:19:45.126Z,100.00
2023-05-15T08:22:11.892Z,100.00
2023-05-15T08:24:39.422Z,100.00
2023-05-15T08:27:07.101Z,100.00
2023-05-15T08:29:35.625Z,100.00
2023-05-15T08:32:03.745Z,100.00
2023-05-15T08:34:30.401Z,100.00
2023-05-15T08:36:59.265Z,100.00
2023-05-15T08:39:26.092Z,100.00
2023-05-15T08:42:03.375Z,100.00
2023-05-15T08:44:30.976Z,100.00
2023-05-15T08:46:58.105Z,100.00
2023-05-15T08:49:44.295Z,100.00
2023-05-15T08:52:11.064Z,100.00
2023-05-15T08:54:39.716Z,100.00
2023-05-15T08:57:07.344Z,100.00
2023-05-15T08:59:34.123Z,100.00
2023-05-15T09:02:01.119Z,100.00
2023-05-15T09:04:27.910Z,100.00
2023-05-15T09:06:58.948Z,100.00
2023-05-15T09:09:27.735Z,100.00
2023-05-15T09:11:54.733Z,100.00
2023-05-15T09:14:21.520Z,100.00
2023-05-15T09:16:51.079Z,100.00
2023-05-15T09:19:20.960Z,100.00
2023-05-15T09:21:47.728Z,100.00
2023-05-15T09:24:18.936Z,100.00
2023-05-15T09:26:47.217Z,100.00
2023-05-15T09:29:18.813Z,100.00
2023-05-15T09:31:49.743Z,100.00
2023-05-15T09:34:16.628Z,100.00
2023-05-15T09:36:46.608Z,100.00
2023-05-15T09:39:13.350Z,100.00
2023-05-15T09:41:44.071Z,100.00
2023-05-15T09:44:24.819Z,99.73
2023-05-15T09:46:52.516Z,99.99
2023-05-15T09:49:26.804Z,100.00
2023-05-15T09:51:58.082Z,100.00
2023-05-15T09:54:27.436Z,100.00
2023-05-15T09:56:54.336Z,100.00
2023-05-15T09:59:24.561Z,100.00
2023-05-15T10:01:55.510Z,100.00
2023-05-15T10:04:22.215Z,100.00
2023-05-15T10:06:49.399Z,100.00
2023-05-15T10:09:16.413Z,100.00
2023-05-15T10:11:49.370Z,100.00
2023-05-15T10:14:17.892Z,100.00
2023-05-15T10:16:45.575Z,100.00
2023-05-15T10:19:13.697Z,100.00
2023-05-15T10:21:41.909Z,100.00
2023-05-15T10:24:09.126Z,100.00
2023-05-15T10:26:40.613Z,100.00
2023-05-15T10:29:10.797Z,96.07
2023-05-15T10:31:38.991Z,98.87
2023-05-15T10:34:06.763Z,99.73
2023-05-15T10:36:35.326Z,98.51
2023-05-15T10:39:06.612Z,100.00
2023-05-15T10:41:36.597Z,99.48
2023-05-15T10:44:03.241Z,99.58
2023-05-15T10:46:33.360Z,100.00
2023-05-15T10:49:01.748Z,100.00
2023-05-15T10:51:31.531Z,99.58
2023-05-15T10:54:01.231Z,100.00
2023-05-15T10:56:32.439Z,96.30
2023-05-15T10:59:07.156Z,99.46
2023-05-15T11:01:41.416Z,99.42
2023-05-15T11:04:11.267Z,97.83
2023-05-15T11:06:40.998Z,95.76
2023-05-15T11:09:26.586Z,97.22
2023-05-15T11:11:57.905Z,95.56
2023-05-15T11:14:26.671Z,92.83
2023-05-15T11:16:53.562Z,93.68
2023-05-15T11:19:44.523Z,98.29
2023-05-15T11:22:14.158Z,99.86
2023-05-15T11:25:06.840Z,99.00
2023-05-15T11:27:45.642Z,96.19
2023-05-15T11:30:26.470Z,95.96
2023-05-15T11:32:59.344Z,95.05
2023-05-15T11:35:47.306Z,99.79
2023-05-15T11:38:17.680Z,95.68
2023-05-15T11:40:50.376Z,93.10
2023-05-15T11:43:36.512Z,96.33
2023-05-15T11:46:03.168Z,99.59
2023-05-15T11:48:43.076Z,97.45
2023-05-15T11:51:30.192Z,97.31
2023-05-15T11:53:58.163Z,97.09
2023-05-15T11:56:28.382Z,95.79
2023-05-15T11:58:57.192Z,94.28
2023-05-15T12:01:24.517Z,92.55
2023-05-15T12:03:54.425Z,92.23
2023-05-15T12:06:21.991Z,91.26
2023-05-15T12:08:53.065Z,91.91
2023-05-15T12:11:24.234Z,92.74
2023-05-15T12:13:54.998Z,92.83
2023-05-15T12:16:28.594Z,93.04
2023-05-15T12:18:58.925Z,93.97
2023-05-15T12:21:28.933Z,93.27
2023-05-15T12:26:26.715Z,94.48
2023-05-15T12:28:54.465Z,92.71
2023-05-15T12:31:21.731Z,88.16
2023-05-15T12:33:48.726Z,84.16
2023-05-15T12:36:15.528Z,84.23
2023-05-15T12:38:42.305Z,83.47
2023-05-15T12:41:12.041Z,85.01
2023-05-15T12:43:38.871Z,82.16
2023-05-15T12:46:05.646Z,82.33
2023-05-15T12:48:32.970Z,83.58
2023-05-15T12:51:07.440Z,86.45
2023-05-15T12:53:34.651Z,85.31
2023-05-15T12:56:01.728Z,87.43
2023-05-15T12:58:28.458Z,86.02
2023-05-15T13:00:57.050Z,88.71
2023-05-15T13:03:25.099Z,85.11
2023-05-15T13:05:52.521Z,85.52
2023-05-15T13:08:19.635Z,86.87
2023-05-15T13:10:47.701Z,88.69
2023-05-15T13:13:15.502Z,91.49
2023-05-15T13:15:45.863Z,88.25
2023-05-15T13:18:17.523Z,92.07
2023-05-15T13:20:45.384Z,93.10
2023-05-15T13:23:15.048Z,90.32
2023-05-15T13:25:42.511Z,91.06
2023-05-15T13:28:12.878Z,88.08
2023-05-15T13:30:41.891Z,84.83
2023-05-15T13:33:10.826Z,85.90
2023-05-15T13:35:39.068Z,87.25
2023-05-15T13:38:06.524Z,83.20
2023-05-15T13:40:37.041Z,85.13
2023-05-15T13:43:03.748Z,86.59
2023-05-15T13:45:30.624Z,83.18
2023-05-15T13:47:57.322Z,80.52
2023-05-15T13:50:24.188Z,76.74
2023-05-15T13:52:51.127Z,78.90
2023-05-15T13:55:17.768Z,74.37
2023-05-15T13:57:45.735Z,73.41
2023-05-15T14:00:13.778Z,77.32
2023-05-15T14:02:43.051Z,75.66
2023-05-15T14:05:11.529Z,71.46
2023-05-15T14:07:38.324Z,72.64
2023-05-15T14:10:08.958Z,72.96
2023-05-15T14:12:46.651Z,70.71
2023-05-15T14:15:13.324Z,70.76
2023-05-15T14:17:40.111Z,71.76
2023-05-15T14:20:07.654Z,71.11
2023-05-15T14:22:34.286Z,68.76
2023-05-15T14:25:01.040Z,69.78
2023-05-15T14:27:27.792Z,84.94
2023-05-15T14:29:56.586Z,96.75
2023-05-15T14:32:24.908Z,99.13
2023-05-15T14:34:51.848Z,100.00
2023-05-15T14:37:19.401Z,100.00
2023-05-15T14:39:46.718Z,100.00
2023-05-15T14:42:13.406Z,100.00
2023-05-15T14:44:40.099Z,100.00
2023-05-15T14:47:12.761Z,100.00
2023-05-15T14:49:40.352Z,100.00
2023-05-15T14:52:09.730Z,100.00
2023-05-15T14:54:37.484Z,100.00
2023-05-15T14:57:04.519Z,100.00
2023-05-15T14:59:31.512Z,100.00
2023-05-15T15:01:58.288Z,100.00
2023-05-15T15:04:26.686Z,100.00
2023-05-15T15:06:56.885Z,100.00
2023-05-15T15:09:24.265Z,100.00
2023-05-15T15:11:51.380Z,100.00
2023-05-15T15:14:18.195Z,100.00
2023-05-15T15:16:46.059Z,100.00
2023-05-15T15:19:13.556Z,100.00
2023-05-15T15:21:40.516Z,100.00
2023-05-15T15:24:08.346Z,100.00
2023-05-15T15:26:37.634Z,100.00
2023-05-15T15:29:04.286Z,100.00
2023-05-15T15:31:31.767Z,100.00
2023-05-15T15:34:03.633Z,100.00
2023-05-15T15:36:31.864Z,100.00
2023-05-15T15:38:58.550Z,100.00
2023-05-15T15:41:25.411Z,100.00
2023-05-15T15:43:52.451Z,100.00
2023-05-15T15:46:19.282Z,100.00
2023-05-15T15:48:46.179Z,100.00
2023-05-15T15:51:12.832Z,100.00
2023-05-15T15:53:39.687Z,100.00
2023-05-15T15:56:07.450Z,100.00
2023-05-15T15:58:34.144Z,100.00
2023-05-15T16:01:01.258Z,100.00
2023-05-15T16:03:28.105Z,100.00
2023-05-15T16:05:54.951Z,100.00
2023-05-15T16:08:21.686Z,100.00
2023-05-15T16:10:48.486Z,100.00
2023-05-15T16:13:15.167Z,100.00
2023-05-15T16:15:41.816Z,100.00
2023-05-15T16:18:08.472Z,100.00
2023-05-15T16:20:38.199Z,100.00
2023-05-15T16:23:04.925Z,100.00
2023-05-15T16:25:31.834Z,100.00
2023-05-15T16:28:01.485Z,100.00
2023-05-15T16:30:40.056Z,100.00
2023-05-15T16:33:11.505Z,100.00
2023-05-15T16:35:38.347Z,100.00
2023-05-15T16:38:05.101Z,100.00
2023-05-15T16:40:31.813Z,100.00
2023-05-15T16:43:00.969Z,100.00
2023-05-15T16:45:27.822Z,100.00
2023-05-15T16:47:54.558Z,100.00
2023-05-15T16:50:21.450Z,100.00
2023-05-15T16:52:49.016Z,100.00
2023-05-15T16:55:17.837Z,100.00
2023-05-15T16:57:45.517Z,100.00
2023-05-15T17:00:13.522Z,100.00
2023-05-15T17:02:41.830Z,100.00
2023-05-15T17:05:10.468Z,100.00
2023-05-15T17:07:38.020Z,100.00
2023-05-15T17:10:06.117Z,100.00
2023-05-15T17:12:32.995Z,100.00
2023-05-15T17:14:59.817Z,100.00
2023-05-15T17:17:28.714Z,100.00
2023-05-15T17:19:56.316Z,100.00
2023-05-15T17:22:23.540Z,100.00
2023-05-15T17:24:52.201Z,100.00
2023-05-15T17:27:20.605Z,100.00
2023-05-15T17:29:48.085Z,100.00
2023-05-15T17:32:16.865Z,100.00
2023-05-15T17:34:44.024Z,100.00
2023-05-15T17:37:10.916Z,100.00
2023-05-15T17:39:37.672Z,100.00
2023-05-15T17:42:04.446Z,100.00
2023-05-15T17:44:31.306Z,100.00
2023-05-15T17:46:58.484Z,100.00
2023-05-15T17:49:26.150Z,100.00
2023-05-15T17:51:53.495Z,100.00
2023-05-15T17:54:20.557Z,100.00
2023-05-15T17:56:48.205Z,100.00
2023-05-15T17:59:14.829Z,100.00
2023-05-15T18:01:41.692Z,100.00
2023-05-15T18:04:08.690Z,100.00
2023-05-15T18:06:35.594Z,100.00
2023-05-15T18:09:02.684Z,100.00
2023-05-15T18:11:29.422Z,100.00
2023-05-15T18:13:56.132Z,100.00
2023-05-15T18:16:22.854Z,100.00
2023-05-15T18:18:52.005Z,100.00
2023-05-15T18:21:18.947Z,100.00
2023-05-15T18:23:45.673Z,100.00
2023-05-15T18:26:12.436Z,100.00
2023-05-15T18:28:39.144Z,100.00
2023-05-15T18:31:06.019Z,100.00
2023-05-15T18:33:36.808Z,100.00
2023-05-15T18:36:05.910Z,100.00
2023-05-15T18:38:34.091Z,100.00
2023-05-15T18:41:00.740Z,100.00
2023-05-15T18:43:27.578Z,100.00
2023-05-15T18:45:54.703Z,100.00
2023-05-15T18:48:21.358Z,100.00
2023-05-15T18:50:49.552Z,100.00
2023-05-15T18:53:16.484Z,100.00
2023-05-15T18:55:43.264Z,100.00
2023-05-15T18:58:09.969Z,100.00
2023-05-15T19:00:39.013Z,100.00
2023-05-15T19:03:08.985Z,100.00
2023-05-15T19:05:35.849Z,100.00
2023-05-15T19:08:03.158Z,100.00
2023-05-15T19:10:30.585Z,100.00
2023-05-15T19:12:58.213Z,100.00
2023-05-15T19:15:25.584Z,100.00
2023-05-15T19:17:52.686Z,100.00
2023-05-15T19:20:20.119Z,100.00
2023-05-15T19:22:46.885Z,100.00
2023-05-15T19:25:13.573Z,100.00
2023-05-15T19:27:40.390Z,100.00
2023-05-15T19:30:07.916Z,100.00
2023-05-15T19:32:34.787Z,100.00
2023-05-15T19:35:01.837Z,100.00
2023-05-15T19:37:29.038Z,100.00
2023-05-15T19:39:56.924Z,100.00
2023-05-15T19:42:23.887Z,100.00
2023-05-15T19:44:50.842Z,100.00
2023-05-15T19:47:17.524Z,100.00
2023-05-15T19:49:44.157Z,100.00
2023-05-15T19:52:10.839Z,100.00
2023-05-15T19:54:37.484Z,100.00
2023-05-15T19:57:06.274Z,100.00
2023-05-15T19:59:33.049Z,100.00
2023-05-15T20:02:01.589Z,100.00
2023-05-15T20:04:28.970Z,100.00
2023-05-15T20:06:55.748Z,100.00
2023-05-15T20:09:23.613Z,100.00
2023-05-15T20:11:51.059Z,100.00
2023-05-15T20:14:17.860Z,100.00
2023-05-15T20:16:44.773Z,100.00
2023-05-15T20:19:12.461Z,100.00
2023-05-15T20:21:39.421Z,100.00
2023-05-15T20:24:06.986Z,100.00
2023-05-15T20:26:35.996Z,100.00
2023-05-15T20:29:03.538Z,100.00
2023-05-15T20:31:30.332Z,100.00
2023-05-15T20:33:57.001Z,100.00
2023-05-15T20:36:25.518Z,100.00
2023-05-15T20:38:52.820Z,100.00
2023-05-15T20:41:21.538Z,100.00
2023-05-15T20:43:52.442Z,100.00
2023-05-15T20:46:19.322Z,100.00
2023-05-15T20:48:46.241Z,100.00
2023-05-15T20:51:12.864Z,100.00
2023-05-15T20:53:39.552Z,100.00
2023-05-15T20:56:06.506Z,100.00
2023-05-15T20:58:33.447Z,100.00
2023-05-15T21:01:02.899Z,100.00
2023-05-15T21:03:29.917Z,100.00
2023-05-15T21:05:57.465Z,100.00
2023-05-15T21:08:28.545Z,100.00
2023-05-15T21:10:55.563Z,100.00
2023-05-15T21:13:24.940Z,100.00
2023-05-15T21:15:51.700Z,100.00
2023-05-15T21:18:18.968Z,100.00
2023-05-15T21:20:45.890Z,100.00
2023-05-15T21:23:12.586Z,100.00
2023-05-15T21:25:39.970Z,100.00
2023-05-15T21:28:09.497Z,100.00
2023-05-15T21:30:43.465Z,100.00
2023-05-15T21:33:11.030Z,100.00
2023-05-15T21:35:38.328Z,100.00
2023-05-15T21:38:06.441Z,100.00
2023-05-15T21:40:33.109Z,100.00
2023-05-15T21:42:59.736Z,100.00
2023-05-15T21:45:26.458Z,100.00
2023-05-15T21:47:53.249Z,100.00
2023-05-15T21:50:20.021Z,100.00
2023-05-15T21:52:46.766Z,100.00
2023-05-15T21:55:13.425Z,100.00
2023-05-15T21:57:40.470Z,100.00
2023-05-15T22:00:08.335Z,100.00
2023-05-15T22:02:36.322Z,100.00
2023-05-15T22:05:03.909Z,100.00
2023-05-15T22:07:30.577Z,100.00
2023-05-15T22:09:57.329Z,100.00
2023-05-15T22:12:24.014Z,100.00
2023-05-15T22:14:58.283Z,100.00
2023-05-15T22:17:30.290Z,100.00
2023-05-15T22:20:07.358Z,100.00
2023-05-15T22:22:35.887Z,100.00
2023-05-15T22:25:02.745Z,100.00
2023-05-15T22:27:29.457Z,100.00
2023-05-15T22:29:56.503Z,100.00
2023-05-15T22:32:23.787Z,100.00
2023-05-15T22:34:50.480Z,100.00
2023-05-15T22:37:17.345Z,100.00
2023-05-15T22:39:44.085Z,100.00
2023-05-15T22:42:10.742Z,100.00
2023-05-15T22:44:37.436Z,100.00
2023-05-15T22:47:04.288Z,100.00
2023-05-15T22:49:31.167Z,100.00
2023-05-15T22:51:58.108Z,100.00
2023-05-15T22:54:25.014Z,100.00
2023-05-15T22:56:52.680Z,100.00
2023-05-15T22:59:20.062Z,100.00
2023-05-15T23:01:47.545Z,100.00
2023-05-15T23:04:14.759Z,100.00
2023-05-15T23:06:41.667Z,100.00
2023-05-15T23:09:09.118Z,100.00
2023-05-15T23:11:36.194Z,100.00
2023-05-15T23:14:03.519Z,100.00
2023-05-15T23:16:30.890Z,100.00
2023-05-15T23:18:57.929Z,100.00
2023-05-15T23:21:24.820Z,100.00
2023-05-15T23:23:51.630Z,100.00
2023-05-15T23:26:18.334Z,100.00
2023-05-15T23:28:45.012Z,100.00
2023-05-15T23:31:14.090Z,100.00
2023-05-15T23:33:41.160Z,100.00
2023-05-15T23:36:07.984Z,100.00
2023-05-15T23:38:34.705Z,100.00
2023-05-15T23:41:04.061Z,100.00
2023-05-15T23:43:30.771Z,100.00
2023-05-15T23:45:57.585Z,100.00
2023-05-15T23:48:24.377Z,100.00
2023-05-15T23:50:52.379Z,100.00
2023-05-15T23:53:19.233Z,100.00
2023-05-15T23:55:45.997Z,100.00
2023-05-15T23:58:12.718Z,100.00
